Terminal Aerodrome Forecast
Issued by NWS

Home | Current Version | Previous Version | Text Only | Print | Product List | Glossary On
Versions: 1 2 3 4 5 6 7 8 9 10 11 12 13 14 15 16 17 18 19 20 21 22
000
FTUS45 KGJT 212343
TAFASE
TAF
KASE 212343Z 2200/2224 VRB10KT P6SM -SHRA BKN023 OVC040
     FM220000 14008KT P6SM VCSH FEW030 SCT040 BKN070
     FM220100 19004KT P6SM VCSH OVC080
     FM221400 VRB03KT P6SM BKN080
     FM221900 32008KT P6SM VCSH SCT050 BKN070=

USA.gov is the U.S. government's official web portal to all federal, state and local government web resources and services.